sensor_id;sensor_type;location;lat;lon;timestamp;P1;durP1;ratioP1;P2;durP2;ratioP2
54627;SDS011;40525;55.926;21.066;2023-07-13T00:02:08;4.60;;;2.80;;
54627;SDS011;40525;55.926;21.066;2023-07-13T00:05:02;8.40;;;3.30;;
54627;SDS011;40525;55.926;21.066;2023-07-13T00:07:56;4.40;;;2.60;;
54627;SDS011;40525;55.926;21.066;2023-07-13T00:10:51;5.40;;;3.00;;
54627;SDS011;40525;55.926;21.066;2023-07-13T00:13:29;6.20;;;3.20;;
54627;SDS011;40525;55.926;21.066;2023-07-13T00:16:20;7.70;;;3.20;;
54627;SDS011;40525;55.926;21.066;2023-07-13T00:18:54;5.00;;;2.90;;
54627;SDS011;40525;55.926;21.066;2023-07-13T00:21:41;6.00;;;2.90;;
54627;SDS011;40525;55.926;21.066;2023-07-13T00:24:16;5.00;;;2.70;;
54627;SDS011;40525;55.926;21.066;2023-07-13T00:27:05;5.30;;;2.70;;
54627;SDS011;40525;55.926;21.066;2023-07-13T00:29:46;5.50;;;3.30;;
54627;SDS011;40525;55.926;21.066;2023-07-13T00:32:26;6.60;;;3.00;;
54627;SDS011;40525;55.926;21.066;2023-07-13T00:35:07;7.70;;;2.90;;
54627;SDS011;40525;55.926;21.066;2023-07-13T00:37:48;8.00;;;2.80;;
54627;SDS011;40525;55.926;21.066;2023-07-13T00:40:28;5.30;;;2.60;;
54627;SDS011;40525;55.926;21.066;2023-07-13T00:43:11;5.60;;;3.00;;
54627;SDS011;40525;55.926;21.066;2023-07-13T00:48:37;8.80;;;3.00;;
54627;SDS011;40525;55.926;21.066;2023-07-13T00:51:20;4.80;;;2.80;;
54627;SDS011;40525;55.926;21.066;2023-07-13T00:54:06;7.30;;;3.70;;
54627;SDS011;40525;55.926;21.066;2023-07-13T00:56:49;4.80;;;2.80;;
54627;SDS011;40525;55.926;21.066;2023-07-13T00:59:32;5.40;;;3.10;;
54627;SDS011;40525;55.926;21.066;2023-07-13T01:02:15;5.90;;;3.10;;
54627;SDS011;40525;55.926;21.066;2023-07-13T01:04:55;5.90;;;2.60;;
54627;SDS011;40525;55.926;21.066;2023-07-13T01:07:36;6.00;;;2.40;;
54627;SDS011;40525;55.926;21.066;2023-07-13T01:10:17;5.70;;;2.40;;
54627;SDS011;40525;55.926;21.066;2023-07-13T01:13:01;4.20;;;2.30;;
54627;SDS011;40525;55.926;21.066;2023-07-13T01:15:43;4.80;;;2.60;;
54627;SDS011;40525;55.926;21.066;2023-07-13T01:18:27;9.00;;;3.00;;
54627;SDS011;40525;55.926;21.066;2023-07-13T01:21:11;5.30;;;2.50;;
54627;SDS011;40525;55.926;21.066;2023-07-13T01:23:51;5.90;;;2.50;;
54627;SDS011;40525;55.926;21.066;2023-07-13T01:26:32;4.90;;;2.10;;
54627;SDS011;40525;55.926;21.066;2023-07-13T01:29:13;4.50;;;2.50;;
54627;SDS011;40525;55.926;21.066;2023-07-13T01:31:55;3.90;;;2.00;;
54627;SDS011;40525;55.926;21.066;2023-07-13T01:34:35;5.10;;;2.70;;
54627;SDS011;40525;55.926;21.066;2023-07-13T01:37:17;4.60;;;2.60;;
54627;SDS011;40525;55.926;21.066;2023-07-13T01:39:57;6.30;;;2.30;;
54627;SDS011;40525;55.926;21.066;2023-07-13T01:42:38;7.50;;;2.50;;
54627;SDS011;40525;55.926;21.066;2023-07-13T01:45:19;4.10;;;2.10;;
54627;SDS011;40525;55.926;21.066;2023-07-13T01:47:59;4.40;;;2.10;;
54627;SDS011;40525;55.926;21.066;2023-07-13T01:50:40;5.00;;;2.00;;
54627;SDS011;40525;55.926;21.066;2023-07-13T01:53:21;6.10;;;2.20;;
54627;SDS011;40525;55.926;21.066;2023-07-13T01:56:01;6.30;;;2.30;;
54627;SDS011;40525;55.926;21.066;2023-07-13T01:58:41;3.90;;;1.80;;
54627;SDS011;40525;55.926;21.066;2023-07-13T02:01:22;4.40;;;1.80;;
54627;SDS011;40525;55.926;21.066;2023-07-13T02:04:02;3.80;;;1.70;;
54627;SDS011;40525;55.926;21.066;2023-07-13T02:06:43;4.00;;;2.10;;
54627;SDS011;40525;55.926;21.066;2023-07-13T02:09:24;3.10;;;1.60;;
54627;SDS011;40525;55.926;21.066;2023-07-13T02:12:04;4.50;;;1.70;;
54627;SDS011;40525;55.926;21.066;2023-07-13T02:14:47;6.20;;;1.80;;
54627;SDS011;40525;55.926;21.066;2023-07-13T02:17:28;5.30;;;2.10;;
54627;SDS011;40525;55.926;21.066;2023-07-13T02:20:08;5.40;;;2.00;;
54627;SDS011;40525;55.926;21.066;2023-07-13T02:22:49;3.70;;;1.90;;
54627;SDS011;40525;55.926;21.066;2023-07-13T02:25:29;3.60;;;1.80;;
54627;SDS011;40525;55.926;21.066;2023-07-13T02:28:10;2.20;;;1.40;;
54627;SDS011;40525;55.926;21.066;2023-07-13T02:30:50;3.20;;;2.00;;
54627;SDS011;40525;55.926;21.066;2023-07-13T02:33:31;3.20;;;1.80;;
54627;SDS011;40525;55.926;21.066;2023-07-13T02:36:12;3.70;;;1.60;;
54627;SDS011;40525;55.926;21.066;2023-07-13T02:38:54;3.90;;;2.00;;
54627;SDS011;40525;55.926;21.066;2023-07-13T02:41:33;3.90;;;1.30;;
54627;SDS011;40525;55.926;21.066;2023-07-13T02:44:14;3.30;;;1.10;;
54627;SDS011;40525;55.926;21.066;2023-07-13T02:46:54;4.60;;;1.60;;
54627;SDS011;40525;55.926;21.066;2023-07-13T02:49:35;4.20;;;1.40;;
54627;SDS011;40525;55.926;21.066;2023-07-13T02:52:17;2.20;;;1.10;;
54627;SDS011;40525;55.926;21.066;2023-07-13T02:54:58;2.80;;;1.30;;
54627;SDS011;40525;55.926;21.066;2023-07-13T02:57:37;3.70;;;1.40;;
54627;SDS011;40525;55.926;21.066;2023-07-13T03:00:18;3.70;;;1.20;;
54627;SDS011;40525;55.926;21.066;2023-07-13T03:02:57;4.70;;;1.10;;
54627;SDS011;40525;55.926;21.066;2023-07-13T03:05:45;5.60;;;1.10;;
54627;SDS011;40525;55.926;21.066;2023-07-13T03:08:43;2.40;;;1.00;;
54627;SDS011;40525;55.926;21.066;2023-07-13T03:11:24;4.70;;;1.10;;
54627;SDS011;40525;55.926;21.066;2023-07-13T03:14:18;2.50;;;1.30;;
54627;SDS011;40525;55.926;21.066;2023-07-13T03:16:59;2.90;;;1.00;;
54627;SDS011;40525;55.926;21.066;2023-07-13T03:19:43;4.10;;;1.00;;
54627;SDS011;40525;55.926;21.066;2023-07-13T03:22:24;2.90;;;1.50;;
54627;SDS011;40525;55.926;21.066;2023-07-13T03:25:06;2.10;;;1.00;;
54627;SDS011;40525;55.926;21.066;2023-07-13T03:27:48;2.90;;;1.70;;
54627;SDS011;40525;55.926;21.066;2023-07-13T03:30:28;3.20;;;1.20;;
54627;SDS011;40525;55.926;21.066;2023-07-13T03:33:08;6.00;;;1.40;;
54627;SDS011;40525;55.926;21.066;2023-07-13T03:35:48;3.90;;;1.40;;
54627;SDS011;40525;55.926;21.066;2023-07-13T03:38:29;4.10;;;1.00;;
54627;SDS011;40525;55.926;21.066;2023-07-13T03:41:08;2.90;;;1.10;;
54627;SDS011;40525;55.926;21.066;2023-07-13T03:43:49;3.40;;;0.90;;
54627;SDS011;40525;55.926;21.066;2023-07-13T03:46:31;3.50;;;1.00;;
54627;SDS011;40525;55.926;21.066;2023-07-13T03:49:13;4.20;;;1.30;;
54627;SDS011;40525;55.926;21.066;2023-07-13T03:51:53;5.60;;;1.20;;
54627;SDS011;40525;55.926;21.066;2023-07-13T03:54:33;3.30;;;1.10;;
54627;SDS011;40525;55.926;21.066;2023-07-13T03:57:13;2.60;;;1.10;;
54627;SDS011;40525;55.926;21.066;2023-07-13T03:59:55;2.50;;;1.00;;
54627;SDS011;40525;55.926;21.066;2023-07-13T04:02:47;5.40;;;1.90;;
54627;SDS011;40525;55.926;21.066;2023-07-13T04:05:37;3.20;;;0.90;;
54627;SDS011;40525;55.926;21.066;2023-07-13T04:08:32;6.20;;;1.60;;
54627;SDS011;40525;55.926;21.066;2023-07-13T04:11:08;6.60;;;1.40;;
54627;SDS011;40525;55.926;21.066;2023-07-13T04:14:07;3.50;;;1.30;;
54627;SDS011;40525;55.926;21.066;2023-07-13T04:16:47;4.60;;;1.70;;
54627;SDS011;40525;55.926;21.066;2023-07-13T04:19:28;3.00;;;1.50;;
54627;SDS011;40525;55.926;21.066;2023-07-13T04:22:08;3.00;;;1.20;;
54627;SDS011;40525;55.926;21.066;2023-07-13T04:24:48;2.80;;;1.30;;
54627;SDS011;40525;55.926;21.066;2023-07-13T04:27:29;3.00;;;1.20;;
54627;SDS011;40525;55.926;21.066;2023-07-13T04:30:10;2.40;;;1.20;;
54627;SDS011;40525;55.926;21.066;2023-07-13T04:32:51;4.90;;;2.20;;
54627;SDS011;40525;55.926;21.066;2023-07-13T04:35:32;2.40;;;1.90;;
54627;SDS011;40525;55.926;21.066;2023-07-13T04:38:12;5.00;;;1.50;;
54627;SDS011;40525;55.926;21.066;2023-07-13T04:40:54;3.10;;;1.50;;
54627;SDS011;40525;55.926;21.066;2023-07-13T04:43:36;2.70;;;1.30;;
54627;SDS011;40525;55.926;21.066;2023-07-13T04:46:17;4.50;;;1.60;;
54627;SDS011;40525;55.926;21.066;2023-07-13T04:48:59;4.70;;;1.40;;
54627;SDS011;40525;55.926;21.066;2023-07-13T04:51:39;5.50;;;2.00;;
54627;SDS011;40525;55.926;21.066;2023-07-13T04:54:19;5.50;;;1.90;;
54627;SDS011;40525;55.926;21.066;2023-07-13T04:57:01;4.20;;;1.50;;
54627;SDS011;40525;55.926;21.066;2023-07-13T04:59:41;3.50;;;1.40;;
54627;SDS011;40525;55.926;21.066;2023-07-13T05:02:22;2.80;;;1.30;;
54627;SDS011;40525;55.926;21.066;2023-07-13T05:05:09;2.40;;;1.00;;
54627;SDS011;40525;55.926;21.066;2023-07-13T05:08:03;2.60;;;1.30;;
54627;SDS011;40525;55.926;21.066;2023-07-13T05:10:37;4.30;;;1.40;;
54627;SDS011;40525;55.926;21.066;2023-07-13T05:13:24;3.60;;;1.30;;
54627;SDS011;40525;55.926;21.066;2023-07-13T05:15:59;3.80;;;1.00;;
54627;SDS011;40525;55.926;21.066;2023-07-13T05:21:32;2.90;;;1.40;;
54627;SDS011;40525;55.926;21.066;2023-07-13T05:24:12;2.10;;;1.20;;
54627;SDS011;40525;55.926;21.066;2023-07-13T05:26:58;3.30;;;1.10;;
54627;SDS011;40525;55.926;21.066;2023-07-13T05:29:39;1.80;;;1.00;;
54627;SDS011;40525;55.926;21.066;2023-07-13T05:32:20;2.50;;;1.30;;
54627;SDS011;40525;55.926;21.066;2023-07-13T05:35:01;2.60;;;0.90;;
54627;SDS011;40525;55.926;21.066;2023-07-13T05:37:43;4.20;;;1.10;;
54627;SDS011;40525;55.926;21.066;2023-07-13T05:40:23;2.60;;;1.40;;
54627;SDS011;40525;55.926;21.066;2023-07-13T05:43:03;5.10;;;1.30;;
54627;SDS011;40525;55.926;21.066;2023-07-13T05:45:43;3.40;;;1.10;;
54627;SDS011;40525;55.926;21.066;2023-07-13T05:48:23;3.10;;;1.10;;
54627;SDS011;40525;55.926;21.066;2023-07-13T05:51:03;2.40;;;1.00;;
54627;SDS011;40525;55.926;21.066;2023-07-13T05:53:43;3.40;;;1.40;;
54627;SDS011;40525;55.926;21.066;2023-07-13T05:56:24;4.50;;;1.10;;
54627;SDS011;40525;55.926;21.066;2023-07-13T05:59:06;3.00;;;1.50;;
54627;SDS011;40525;55.926;21.066;2023-07-13T06:01:46;2.10;;;1.40;;
54627;SDS011;40525;55.926;21.066;2023-07-13T06:04:33;2.90;;;1.30;;
54627;SDS011;40525;55.926;21.066;2023-07-13T06:07:30;5.40;;;1.40;;
54627;SDS011;40525;55.926;21.066;2023-07-13T06:10:04;4.20;;;1.30;;
54627;SDS011;40525;55.926;21.066;2023-07-13T06:12:52;3.30;;;1.20;;
54627;SDS011;40525;55.926;21.066;2023-07-13T06:15:25;4.10;;;1.20;;
54627;SDS011;40525;55.926;21.066;2023-07-13T06:18:12;5.60;;;1.50;;
54627;SDS011;40525;55.926;21.066;2023-07-13T06:20:45;2.60;;;1.60;;
54627;SDS011;40525;55.926;21.066;2023-07-13T06:23:32;2.90;;;1.60;;
54627;SDS011;40525;55.926;21.066;2023-07-13T06:26:13;3.10;;;1.40;;
54627;SDS011;40525;55.926;21.066;2023-07-13T06:34:15;2.60;;;1.10;;
54627;SDS011;40525;55.926;21.066;2023-07-13T06:36:56;3.40;;;1.40;;
54627;SDS011;40525;55.926;21.066;2023-07-13T06:39:37;3.40;;;1.40;;
54627;SDS011;40525;55.926;21.066;2023-07-13T06:42:19;2.30;;;1.20;;
54627;SDS011;40525;55.926;21.066;2023-07-13T06:47:43;3.70;;;1.30;;
54627;SDS011;40525;55.926;21.066;2023-07-13T06:50:37;2.90;;;1.50;;
54627;SDS011;40525;55.926;21.066;2023-07-13T06:53:11;2.30;;;1.40;;
54627;SDS011;40525;55.926;21.066;2023-07-13T06:55:59;6.20;;;1.40;;
54627;SDS011;40525;55.926;21.066;2023-07-13T06:58:39;3.60;;;1.50;;
54627;SDS011;40525;55.926;21.066;2023-07-13T07:01:19;5.10;;;1.40;;
54627;SDS011;40525;55.926;21.066;2023-07-13T07:04:00;2.30;;;1.40;;
54627;SDS011;40525;55.926;21.066;2023-07-13T07:06:40;2.50;;;1.40;;
54627;SDS011;40525;55.926;21.066;2023-07-13T07:09:20;4.60;;;1.60;;
54627;SDS011;40525;55.926;21.066;2023-07-13T07:12:02;3.50;;;1.30;;
54627;SDS011;40525;55.926;21.066;2023-07-13T07:14:46;3.10;;;1.30;;
54627;SDS011;40525;55.926;21.066;2023-07-13T07:17:26;2.40;;;1.40;;
54627;SDS011;40525;55.926;21.066;2023-07-13T07:20:06;4.70;;;1.50;;
54627;SDS011;40525;55.926;21.066;2023-07-13T07:22:49;3.20;;;1.40;;
54627;SDS011;40525;55.926;21.066;2023-07-13T07:25:29;3.20;;;1.30;;
54627;SDS011;40525;55.926;21.066;2023-07-13T07:28:16;3.20;;;1.10;;
54627;SDS011;40525;55.926;21.066;2023-07-13T07:31:02;3.50;;;1.70;;
54627;SDS011;40525;55.926;21.066;2023-07-13T07:33:45;2.70;;;1.10;;
54627;SDS011;40525;55.926;21.066;2023-07-13T07:36:25;7.50;;;1.30;;
54627;SDS011;40525;55.926;21.066;2023-07-13T07:39:09;3.90;;;1.30;;
54627;SDS011;40525;55.926;21.066;2023-07-13T07:41:49;3.90;;;1.80;;
54627;SDS011;40525;55.926;21.066;2023-07-13T07:44:30;3.00;;;1.10;;
54627;SDS011;40525;55.926;21.066;2023-07-13T07:47:18;3.00;;;1.30;;
54627;SDS011;40525;55.926;21.066;2023-07-13T07:50:12;3.70;;;1.40;;
54627;SDS011;40525;55.926;21.066;2023-07-13T07:52:45;4.00;;;1.30;;
54627;SDS011;40525;55.926;21.066;2023-07-13T07:55:32;4.70;;;2.10;;
54627;SDS011;40525;55.926;21.066;2023-07-13T07:58:12;3.50;;;1.40;;
54627;SDS011;40525;55.926;21.066;2023-07-13T08:01:03;3.80;;;1.70;;
54627;SDS011;40525;55.926;21.066;2023-07-13T08:03:47;2.70;;;1.20;;
54627;SDS011;40525;55.926;21.066;2023-07-13T08:06:31;4.10;;;1.60;;
54627;SDS011;40525;55.926;21.066;2023-07-13T08:09:18;3.50;;;1.60;;
54627;SDS011;40525;55.926;21.066;2023-07-13T08:12:00;4.20;;;1.70;;
54627;SDS011;40525;55.926;21.066;2023-07-13T08:14:43;3.10;;;1.50;;
54627;SDS011;40525;55.926;21.066;2023-07-13T08:17:30;4.70;;;1.60;;
54627;SDS011;40525;55.926;21.066;2023-07-13T08:20:11;4.20;;;1.30;;
54627;SDS011;40525;55.926;21.066;2023-07-13T08:22:52;3.00;;;1.50;;
54627;SDS011;40525;55.926;21.066;2023-07-13T08:25:33;3.20;;;1.20;;
54627;SDS011;40525;55.926;21.066;2023-07-13T08:28:15;2.60;;;1.30;;
54627;SDS011;40525;55.926;21.066;2023-07-13T08:30:55;3.20;;;1.10;;
54627;SDS011;40525;55.926;21.066;2023-07-13T08:33:41;5.40;;;1.50;;
54627;SDS011;40525;55.926;21.066;2023-07-13T08:36:23;2.30;;;1.40;;
54627;SDS011;40525;55.926;21.066;2023-07-13T08:39:02;4.50;;;1.60;;
54627;SDS011;40525;55.926;21.066;2023-07-13T08:41:45;3.40;;;1.50;;
54627;SDS011;40525;55.926;21.066;2023-07-13T08:47:28;4.80;;;1.60;;
54627;SDS011;40525;55.926;21.066;2023-07-13T08:50:29;3.80;;;1.60;;
54627;SDS011;40525;55.926;21.066;2023-07-13T08:53:25;3.70;;;1.40;;
54627;SDS011;40525;55.926;21.066;2023-07-13T08:56:21;5.30;;;2.10;;
54627;SDS011;40525;55.926;21.066;2023-07-13T08:59:02;2.90;;;1.40;;
54627;SDS011;40525;55.926;21.066;2023-07-13T09:07:37;4.70;;;1.40;;
54627;SDS011;40525;55.926;21.066;2023-07-13T09:10:30;5.80;;;1.60;;
54627;SDS011;40525;55.926;21.066;2023-07-13T09:13:37;4.10;;;1.50;;
54627;SDS011;40525;55.926;21.066;2023-07-13T09:16:20;3.90;;;1.30;;
54627;SDS011;40525;55.926;21.066;2023-07-13T09:19:11;4.30;;;1.40;;
54627;SDS011;40525;55.926;21.066;2023-07-13T09:21:53;3.00;;;1.10;;
54627;SDS011;40525;55.926;21.066;2023-07-13T09:24:49;2.30;;;1.20;;
54627;SDS011;40525;55.926;21.066;2023-07-13T09:27:34;5.90;;;1.40;;
54627;SDS011;40525;55.926;21.066;2023-07-13T09:30:30;3.70;;;1.60;;
54627;SDS011;40525;55.926;21.066;2023-07-13T09:33:11;3.30;;;1.60;;
54627;SDS011;40525;55.926;21.066;2023-07-13T09:35:58;4.00;;;1.30;;
54627;SDS011;40525;55.926;21.066;2023-07-13T09:38:39;2.50;;;1.40;;
54627;SDS011;40525;55.926;21.066;2023-07-13T09:41:26;4.10;;;1.40;;
54627;SDS011;40525;55.926;21.066;2023-07-13T09:44:17;6.90;;;1.60;;
54627;SDS011;40525;55.926;21.066;2023-07-13T09:47:16;2.30;;;1.20;;
54627;SDS011;40525;55.926;21.066;2023-07-13T09:50:00;3.70;;;1.50;;
54627;SDS011;40525;55.926;21.066;2023-07-13T10:01:03;6.30;;;1.60;;
54627;SDS011;40525;55.926;21.066;2023-07-13T10:03:52;3.80;;;1.30;;
54627;SDS011;40525;55.926;21.066;2023-07-13T10:06:33;4.30;;;1.50;;
54627;SDS011;40525;55.926;21.066;2023-07-13T10:09:23;4.90;;;1.60;;
54627;SDS011;40525;55.926;21.066;2023-07-13T10:11:57;5.80;;;1.70;;
54627;SDS011;40525;55.926;21.066;2023-07-13T10:14:45;4.40;;;1.90;;
54627;SDS011;40525;55.926;21.066;2023-07-13T10:17:38;5.30;;;1.30;;
54627;SDS011;40525;55.926;21.066;2023-07-13T10:20:26;4.50;;;1.30;;
54627;SDS011;40525;55.926;21.066;2023-07-13T10:23:10;4.50;;;1.70;;
54627;SDS011;40525;55.926;21.066;2023-07-13T10:26:04;4.50;;;1.20;;
54627;SDS011;40525;55.926;21.066;2023-07-13T10:28:45;3.90;;;1.60;;
54627;SDS011;40525;55.926;21.066;2023-07-13T10:31:36;4.70;;;1.40;;
54627;SDS011;40525;55.926;21.066;2023-07-13T10:34:13;2.40;;;1.40;;
54627;SDS011;40525;55.926;21.066;2023-07-13T10:37:00;5.10;;;1.70;;
54627;SDS011;40525;55.926;21.066;2023-07-13T10:39:42;4.00;;;1.20;;
54627;SDS011;40525;55.926;21.066;2023-07-13T10:42:37;6.10;;;1.40;;
54627;SDS011;40525;55.926;21.066;2023-07-13T10:45:33;22.70;;;2.20;;
54627;SDS011;40525;55.926;21.066;2023-07-13T10:48:29;2.30;;;1.20;;
54627;SDS011;40525;55.926;21.066;2023-07-13T10:51:05;3.30;;;1.20;;
54627;SDS011;40525;55.926;21.066;2023-07-13T10:57:28;2.10;;;0.90;;
54627;SDS011;40525;55.926;21.066;2023-07-13T11:00:14;8.00;;;1.40;;
54627;SDS011;40525;55.926;21.066;2023-07-13T11:03:00;4.80;;;1.20;;
54627;SDS011;40525;55.926;21.066;2023-07-13T11:05:51;4.50;;;1.10;;
54627;SDS011;40525;55.926;21.066;2023-07-13T11:08:51;2.80;;;0.90;;
54627;SDS011;40525;55.926;21.066;2023-07-13T11:11:40;5.50;;;1.40;;
54627;SDS011;40525;55.926;21.066;2023-07-13T11:14:28;6.70;;;1.40;;
54627;SDS011;40525;55.926;21.066;2023-07-13T11:20:10;2.90;;;1.00;;
54627;SDS011;40525;55.926;21.066;2023-07-13T11:23:20;3.00;;;1.10;;
54627;SDS011;40525;55.926;21.066;2023-07-13T11:26:01;5.20;;;1.70;;
54627;SDS011;40525;55.926;21.066;2023-07-13T11:28:50;6.00;;;0.90;;
54627;SDS011;40525;55.926;21.066;2023-07-13T11:31:24;7.20;;;1.20;;
54627;SDS011;40525;55.926;21.066;2023-07-13T11:34:12;4.40;;;1.00;;
54627;SDS011;40525;55.926;21.066;2023-07-13T11:36:48;4.10;;;1.00;;
54627;SDS011;40525;55.926;21.066;2023-07-13T11:39:35;3.60;;;1.20;;
54627;SDS011;40525;55.926;21.066;2023-07-13T11:42:20;3.50;;;1.00;;
54627;SDS011;40525;55.926;21.066;2023-07-13T11:45:01;7.40;;;1.60;;
54627;SDS011;40525;55.926;21.066;2023-07-13T11:47:49;5.20;;;1.40;;
54627;SDS011;40525;55.926;21.066;2023-07-13T11:50:56;6.10;;;1.10;;
54627;SDS011;40525;55.926;21.066;2023-07-13T11:53:40;3.30;;;1.00;;
54627;SDS011;40525;55.926;21.066;2023-07-13T11:56:33;2.30;;;1.00;;
54627;SDS011;40525;55.926;21.066;2023-07-13T11:59:07;3.90;;;1.00;;
54627;SDS011;40525;55.926;21.066;2023-07-13T12:01:58;3.90;;;0.80;;
54627;SDS011;40525;55.926;21.066;2023-07-13T12:04:33;2.60;;;1.10;;
54627;SDS011;40525;55.926;21.066;2023-07-13T12:07:22;3.80;;;0.90;;
54627;SDS011;40525;55.926;21.066;2023-07-13T12:10:03;4.60;;;1.20;;
54627;SDS011;40525;55.926;21.066;2023-07-13T12:13:05;3.00;;;0.80;;
54627;SDS011;40525;55.926;21.066;2023-07-13T12:15:45;3.50;;;1.00;;
54627;SDS011;40525;55.926;21.066;2023-07-13T12:18:35;6.40;;;1.30;;
54627;SDS011;40525;55.926;21.066;2023-07-13T12:21:10;3.90;;;1.30;;
54627;SDS011;40525;55.926;21.066;2023-07-13T12:24:00;4.40;;;1.10;;
54627;SDS011;40525;55.926;21.066;2023-07-13T12:26:36;4.10;;;1.40;;
54627;SDS011;40525;55.926;21.066;2023-07-13T12:29:23;2.30;;;0.90;;
54627;SDS011;40525;55.926;21.066;2023-07-13T12:31:57;3.00;;;1.10;;
54627;SDS011;40525;55.926;21.066;2023-07-13T12:34:51;7.00;;;1.40;;
54627;SDS011;40525;55.926;21.066;2023-07-13T12:37:27;3.50;;;1.30;;
54627;SDS011;40525;55.926;21.066;2023-07-13T12:40:16;5.40;;;1.00;;
54627;SDS011;40525;55.926;21.066;2023-07-13T12:42:53;2.90;;;1.30;;
54627;SDS011;40525;55.926;21.066;2023-07-13T12:49:23;3.10;;;1.40;;
54627;SDS011;40525;55.926;21.066;2023-07-13T12:52:23;3.10;;;0.90;;
54627;SDS011;40525;55.926;21.066;2023-07-13T12:55:13;4.20;;;1.10;;
54627;SDS011;40525;55.926;21.066;2023-07-13T12:58:06;3.90;;;1.10;;
54627;SDS011;40525;55.926;21.066;2023-07-13T13:00:48;5.60;;;1.20;;
54627;SDS011;40525;55.926;21.066;2023-07-13T13:03:44;3.10;;;1.00;;
54627;SDS011;40525;55.926;21.066;2023-07-13T13:06:26;6.40;;;1.10;;
54627;SDS011;40525;55.926;21.066;2023-07-13T13:09:17;2.80;;;0.80;;
54627;SDS011;40525;55.926;21.066;2023-07-13T13:11:53;5.70;;;1.00;;
54627;SDS011;40525;55.926;21.066;2023-07-13T13:14:39;4.20;;;1.10;;
54627;SDS011;40525;55.926;21.066;2023-07-13T13:17:24;4.10;;;1.40;;
54627;SDS011;40525;55.926;21.066;2023-07-13T13:20:14;4.20;;;1.20;;
54627;SDS011;40525;55.926;21.066;2023-07-13T13:22:56;2.90;;;1.40;;
54627;SDS011;40525;55.926;21.066;2023-07-13T13:25:37;4.80;;;1.30;;
54627;SDS011;40525;55.926;21.066;2023-07-13T13:28:19;2.40;;;1.00;;
54627;SDS011;40525;55.926;21.066;2023-07-13T13:31:00;2.80;;;1.00;;
54627;SDS011;40525;55.926;21.066;2023-07-13T13:33:41;4.30;;;1.00;;
54627;SDS011;40525;55.926;21.066;2023-07-13T13:36:23;3.30;;;1.10;;
54627;SDS011;40525;55.926;21.066;2023-07-13T13:39:05;4.60;;;1.20;;
54627;SDS011;40525;55.926;21.066;2023-07-13T13:41:59;3.00;;;0.90;;
54627;SDS011;40525;55.926;21.066;2023-07-13T13:44:39;3.10;;;1.00;;
54627;SDS011;40525;55.926;21.066;2023-07-13T13:47:22;1.70;;;1.00;;
54627;SDS011;40525;55.926;21.066;2023-07-13T13:50:11;3.30;;;1.10;;
54627;SDS011;40525;55.926;21.066;2023-07-13T13:52:55;3.50;;;1.10;;
54627;SDS011;40525;55.926;21.066;2023-07-13T13:55:35;4.40;;;1.50;;
54627;SDS011;40525;55.926;21.066;2023-07-13T13:58:16;4.30;;;1.30;;
54627;SDS011;40525;55.926;21.066;2023-07-13T14:00:57;3.90;;;1.00;;
54627;SDS011;40525;55.926;21.066;2023-07-13T14:03:41;2.00;;;0.80;;
54627;SDS011;40525;55.926;21.066;2023-07-13T14:06:22;3.60;;;1.00;;
54627;SDS011;40525;55.926;21.066;2023-07-13T14:09:02;3.10;;;1.30;;
54627;SDS011;40525;55.926;21.066;2023-07-13T14:11:43;2.90;;;1.00;;
54627;SDS011;40525;55.926;21.066;2023-07-13T14:17:23;4.40;;;1.10;;
54627;SDS011;40525;55.926;21.066;2023-07-13T14:20:10;2.80;;;0.90;;
54627;SDS011;40525;55.926;21.066;2023-07-13T14:22:52;4.20;;;1.10;;
54627;SDS011;40525;55.926;21.066;2023-07-13T14:28:24;3.80;;;1.00;;
54627;SDS011;40525;55.926;21.066;2023-07-13T14:31:07;1.60;;;1.00;;
54627;SDS011;40525;55.926;21.066;2023-07-13T14:33:47;4.40;;;0.90;;
54627;SDS011;40525;55.926;21.066;2023-07-13T14:36:33;3.00;;;0.90;;
54627;SDS011;40525;55.926;21.066;2023-07-13T14:39:22;2.60;;;0.80;;
54627;SDS011;40525;55.926;21.066;2023-07-13T14:42:05;1.50;;;0.90;;
54627;SDS011;40525;55.926;21.066;2023-07-13T14:44:45;3.10;;;1.20;;
54627;SDS011;40525;55.926;21.066;2023-07-13T14:47:25;5.00;;;1.30;;
54627;SDS011;40525;55.926;21.066;2023-07-13T14:50:07;6.00;;;1.30;;
54627;SDS011;40525;55.926;21.066;2023-07-13T14:52:53;4.90;;;1.10;;
54627;SDS011;40525;55.926;21.066;2023-07-13T14:55:33;2.80;;;0.80;;
54627;SDS011;40525;55.926;21.066;2023-07-13T14:58:13;10.50;;;1.00;;
54627;SDS011;40525;55.926;21.066;2023-07-13T15:00:54;4.00;;;0.90;;
54627;SDS011;40525;55.926;21.066;2023-07-13T15:03:34;2.60;;;1.00;;
54627;SDS011;40525;55.926;21.066;2023-07-13T15:06:14;3.50;;;0.90;;
54627;SDS011;40525;55.926;21.066;2023-07-13T15:09:01;3.70;;;1.10;;
54627;SDS011;40525;55.926;21.066;2023-07-13T15:11:37;5.50;;;1.20;;
54627;SDS011;40525;55.926;21.066;2023-07-13T15:14:24;3.10;;;1.00;;
54627;SDS011;40525;55.926;21.066;2023-07-13T15:16:58;4.80;;;1.00;;
54627;SDS011;40525;55.926;21.066;2023-07-13T15:19:46;2.70;;;1.10;;
54627;SDS011;40525;55.926;21.066;2023-07-13T15:22:19;3.00;;;0.80;;
54627;SDS011;40525;55.926;21.066;2023-07-13T15:25:11;5.00;;;0.90;;
54627;SDS011;40525;55.926;21.066;2023-07-13T15:27:48;3.50;;;0.80;;
54627;SDS011;40525;55.926;21.066;2023-07-13T15:30:45;3.30;;;0.90;;
54627;SDS011;40525;55.926;21.066;2023-07-13T15:33:28;3.80;;;1.50;;
54627;SDS011;40525;55.926;21.066;2023-07-13T15:36:18;2.60;;;1.00;;
54627;SDS011;40525;55.926;21.066;2023-07-13T15:38:53;4.70;;;1.00;;
54627;SDS011;40525;55.926;21.066;2023-07-13T15:41:42;3.60;;;0.90;;
54627;SDS011;40525;55.926;21.066;2023-07-13T15:44:24;3.40;;;1.00;;
54627;SDS011;40525;55.926;21.066;2023-07-13T15:47:15;2.60;;;0.90;;
54627;SDS011;40525;55.926;21.066;2023-07-13T15:50:13;2.10;;;0.80;;
54627;SDS011;40525;55.926;21.066;2023-07-13T15:52:54;3.20;;;0.90;;
54627;SDS011;40525;55.926;21.066;2023-07-13T15:55:46;3.70;;;1.10;;
54627;SDS011;40525;55.926;21.066;2023-07-13T15:58:19;3.40;;;1.00;;
54627;SDS011;40525;55.926;21.066;2023-07-13T16:01:10;2.10;;;0.80;;
54627;SDS011;40525;55.926;21.066;2023-07-13T16:03:45;1.50;;;0.80;;
54627;SDS011;40525;55.926;21.066;2023-07-13T16:06:33;3.90;;;0.90;;
54627;SDS011;40525;55.926;21.066;2023-07-13T16:09:20;3.30;;;0.90;;
54627;SDS011;40525;55.926;21.066;2023-07-13T16:12:12;3.30;;;1.10;;
54627;SDS011;40525;55.926;21.066;2023-07-13T16:14:47;2.70;;;1.00;;
54627;SDS011;40525;55.926;21.066;2023-07-13T16:17:34;1.40;;;0.90;;
54627;SDS011;40525;55.926;21.066;2023-07-13T16:20:08;4.30;;;1.00;;
54627;SDS011;40525;55.926;21.066;2023-07-13T16:22:56;1.50;;;0.80;;
54627;SDS011;40525;55.926;21.066;2023-07-13T16:25:32;1.90;;;0.80;;
54627;SDS011;40525;55.926;21.066;2023-07-13T16:28:18;3.80;;;1.10;;
54627;SDS011;40525;55.926;21.066;2023-07-13T16:30:52;5.50;;;1.40;;
54627;SDS011;40525;55.926;21.066;2023-07-13T16:33:41;3.00;;;1.10;;
54627;SDS011;40525;55.926;21.066;2023-07-13T16:36:15;3.30;;;1.00;;
54627;SDS011;40525;55.926;21.066;2023-07-13T16:39:04;4.30;;;0.90;;
54627;SDS011;40525;55.926;21.066;2023-07-13T16:41:44;2.80;;;0.80;;
54627;SDS011;40525;55.926;21.066;2023-07-13T16:44:30;3.90;;;1.40;;
54627;SDS011;40525;55.926;21.066;2023-07-13T16:47:08;3.10;;;0.80;;
54627;SDS011;40525;55.926;21.066;2023-07-13T16:49:59;3.90;;;1.00;;
54627;SDS011;40525;55.926;21.066;2023-07-13T16:52:37;1.50;;;0.80;;
54627;SDS011;40525;55.926;21.066;2023-07-13T16:55:23;2.40;;;1.00;;
54627;SDS011;40525;55.926;21.066;2023-07-13T16:58:03;2.60;;;0.90;;